createdAt,value
2019-03-21T00:02:24.390Z,102573.52
2019-03-21T00:04:57.765Z,102578.27
2019-03-21T00:07:31.138Z,102575.27
2019-03-21T00:10:22.757Z,102574.32
2019-03-21T00:12:56.168Z,102569.34
2019-03-21T00:15:32.696Z,102566.19
2019-03-21T00:18:09.075Z,102576.06
2019-03-21T00:20:42.567Z,102576.89
2019-03-21T00:23:15.999Z,102573.52
2019-03-21T00:25:49.400Z,102577.40
2019-03-21T00:28:22.847Z,102575.98
2019-03-21T00:30:56.230Z,102573.89
2019-03-21T00:33:29.565Z,102574.91
2019-03-21T00:36:02.930Z,102572.86
2019-03-21T00:38:36.348Z,102569.88
2019-03-21T00:41:09.771Z,102569.08
2019-03-21T00:43:43.355Z,102571.83
2019-03-21T00:46:16.734Z,102564.79
2019-03-21T00:48:50.069Z,102560.58
2019-03-21T00:51:23.573Z,102567.91
2019-03-21T00:53:56.913Z,102566.78
2019-03-21T00:56:30.284Z,102569.14
2019-03-21T00:59:03.652Z,102569.91
2019-03-21T01:01:37.174Z,102569.08
2019-03-21T01:04:10.611Z,102560.80
2019-03-21T01:06:44.061Z,102561.10
2019-03-21T01:09:17.400Z,102560.59
2019-03-21T01:11:50.817Z,102560.34
2019-03-21T01:14:29.737Z,102550.64
2019-03-21T01:16:59.334Z,102554.89
2019-03-21T01:19:33.440Z,102547.69
2019-03-21T01:22:06.989Z,102550.84
2019-03-21T01:24:40.394Z,102554.63
2019-03-21T01:27:13.807Z,102546.28
2019-03-21T01:29:47.202Z,102547.19
2019-03-21T01:32:20.588Z,102548.22
2019-03-21T01:34:53.938Z,102553.79
2019-03-21T01:37:27.287Z,102552.84
2019-03-21T01:40:00.624Z,102551.66
2019-03-21T01:42:34.045Z,102548.67
2019-03-21T01:45:10.569Z,102548.19
2019-03-21T01:47:43.946Z,102550.60
2019-03-21T01:50:19.651Z,102558.05
2019-03-21T01:52:53.064Z,102561.94
2019-03-21T01:55:26.419Z,102563.89
2019-03-21T01:57:59.887Z,102557.24
2019-03-21T02:00:36.044Z,102560.91
2019-03-21T02:03:09.484Z,102557.81
2019-03-21T02:05:42.910Z,102552.16
2019-03-21T02:08:16.351Z,102551.84
2019-03-21T02:10:49.744Z,102554.50
2019-03-21T02:13:23.089Z,102552.72
2019-03-21T02:15:59.306Z,102545.36
2019-03-21T02:18:31.701Z,102547.45
2019-03-21T02:21:05.110Z,102548.54
2019-03-21T02:23:38.547Z,102546.68
2019-03-21T02:26:11.874Z,102544.06
2019-03-21T02:28:45.291Z,102545.76
2019-03-21T02:31:18.639Z,102544.14
2019-03-21T02:33:52.008Z,102543.62
2019-03-21T02:36:25.347Z,102548.01
2019-03-21T02:38:58.789Z,102539.64
2019-03-21T02:41:32.190Z,102542.77
2019-03-21T02:44:05.691Z,102545.30
2019-03-21T02:46:39.283Z,102547.39
2019-03-21T02:49:12.679Z,102548.37
2019-03-21T02:51:46.118Z,102547.39
2019-03-21T02:54:19.481Z,102548.84
2019-03-21T02:56:52.949Z,102541.43
2019-03-21T02:59:26.310Z,102533.33
2019-03-21T03:01:59.670Z,102535.27
2019-03-21T03:04:33.083Z,102546.92
2019-03-21T03:07:06.467Z,102545.93
2019-03-21T03:09:39.885Z,102542.53
2019-03-21T03:12:13.368Z,102534.77
2019-03-21T03:14:46.784Z,102540.05
2019-03-21T03:17:20.195Z,102550.78
2019-03-21T03:19:53.574Z,102553.37
2019-03-21T03:22:26.930Z,102553.12
2019-03-21T03:25:00.322Z,102552.97
2019-03-21T03:27:33.659Z,102560.55
2019-03-21T03:30:15.821Z,102558.74
2019-03-21T03:32:49.139Z,102565.59
2019-03-21T03:35:22.650Z,102560.60
2019-03-21T03:37:55.990Z,102562.99
2019-03-21T03:40:32.875Z,102566.14
2019-03-21T03:43:06.286Z,102560.54
2019-03-21T03:45:43.657Z,102557.09
2019-03-21T03:48:19.756Z,102562.35
2019-03-21T03:50:52.985Z,102560.81
2019-03-21T03:53:26.434Z,102563.98
2019-03-21T03:56:00.688Z,102564.92
2019-03-21T03:58:43.508Z,102573.05
2019-03-21T04:01:18.886Z,102563.70
2019-03-21T04:03:52.351Z,102562.27
2019-03-21T04:06:25.775Z,102554.80
2019-03-21T04:08:59.212Z,102567.72
2019-03-21T04:11:32.648Z,102566.63
2019-03-21T04:14:06.103Z,102567.80
2019-03-21T04:16:39.472Z,102574.13
2019-03-21T04:19:12.935Z,102573.00
2019-03-21T04:21:46.312Z,102572.05
2019-03-21T04:24:19.674Z,102564.11
2019-03-21T04:26:53.091Z,102565.28
2019-03-21T04:29:26.442Z,102562.95
2019-03-21T04:31:59.928Z,102560.00
2019-03-21T04:34:33.383Z,102568.48
2019-03-21T04:37:06.743Z,102573.14
2019-03-21T04:39:40.179Z,102575.70
2019-03-21T04:42:13.595Z,102582.31
2019-03-21T04:44:46.955Z,102577.61
2019-03-21T04:47:20.310Z,102580.06
2019-03-21T04:49:53.766Z,102581.91
2019-03-21T04:52:27.243Z,102585.02
2019-03-21T04:55:00.578Z,102585.08
2019-03-21T04:57:33.952Z,102575.41
2019-03-21T05:00:13.642Z,102564.67
2019-03-21T05:02:47.030Z,102569.33
2019-03-21T05:05:20.383Z,102563.64
2019-03-21T05:07:53.848Z,102568.27
2019-03-21T05:10:27.236Z,102564.84
2019-03-21T05:13:00.686Z,102564.25
2019-03-21T05:15:48.035Z,102567.94
2019-03-21T05:18:24.712Z,102564.06
2019-03-21T05:20:59.208Z,102568.16
2019-03-21T05:23:32.712Z,102563.19
2019-03-21T05:26:07.752Z,102565.45
2019-03-21T05:28:41.200Z,102573.80
2019-03-21T05:31:32.531Z,102574.58
2019-03-21T05:34:05.960Z,102570.94
2019-03-21T05:36:39.322Z,102578.46
2019-03-21T05:39:12.694Z,102579.16
2019-03-21T05:41:46.051Z,102580.27
2019-03-21T05:44:25.564Z,102590.53
2019-03-21T05:46:58.990Z,102588.98
2019-03-21T05:49:32.355Z,102589.56
2019-03-21T05:52:06.345Z,102593.38
2019-03-21T05:54:39.731Z,102588.67
2019-03-21T05:57:13.066Z,102594.42
2019-03-21T05:59:46.434Z,102599.53
2019-03-21T06:02:19.792Z,102600.82
2019-03-21T06:04:53.219Z,102597.59
2019-03-21T06:07:29.575Z,102598.02
2019-03-21T06:10:03.793Z,102601.57
2019-03-21T06:12:42.489Z,102597.61
2019-03-21T06:15:21.594Z,102593.97
2019-03-21T06:18:07.299Z,102597.66
2019-03-21T06:21:09.704Z,102598.65
2019-03-21T06:23:58.293Z,102605.02
2019-03-21T06:26:54.428Z,102607.02
2019-03-21T06:29:27.847Z,102606.56
2019-03-21T06:32:01.214Z,102603.09
2019-03-21T06:34:34.732Z,102600.27
2019-03-21T06:37:08.085Z,102603.11
2019-03-21T06:39:41.451Z,102593.22
2019-03-21T06:42:14.805Z,102599.26
2019-03-21T06:44:48.231Z,102599.05
2019-03-21T06:47:21.609Z,102606.61
2019-03-21T06:49:55.017Z,102607.98
2019-03-21T06:52:28.395Z,102608.70
2019-03-21T06:55:01.806Z,102609.20
2019-03-21T06:57:35.283Z,102608.25
2019-03-21T07:00:10.580Z,102611.89
2019-03-21T07:02:44.009Z,102609.23
2019-03-21T07:05:17.411Z,102607.13
2019-03-21T07:07:50.802Z,102609.94
2019-03-21T07:10:24.221Z,102612.78
2019-03-21T07:12:57.634Z,102608.02
2019-03-21T07:15:31.038Z,102608.88
2019-03-21T07:18:04.546Z,102601.42
2019-03-21T07:20:37.876Z,102598.55
2019-03-21T07:23:11.243Z,102596.73
2019-03-21T07:25:44.566Z,102593.16
2019-03-21T07:28:18.007Z,102585.15
2019-03-21T07:30:51.350Z,102585.52
2019-03-21T07:33:24.858Z,102584.02
2019-03-21T07:35:58.186Z,102589.30
2019-03-21T07:38:31.701Z,102590.27
2019-03-21T07:41:05.195Z,102588.20
2019-03-21T07:43:38.600Z,102592.59
2019-03-21T07:46:11.918Z,102589.30
2019-03-21T07:48:45.369Z,102589.59
2019-03-21T07:51:18.848Z,102580.13
2019-03-21T07:53:52.295Z,102586.44
2019-03-21T07:56:25.631Z,102585.73
2019-03-21T07:58:59.004Z,102582.86
2019-03-21T08:01:32.344Z,102582.16
2019-03-21T08:04:05.814Z,102590.06
2019-03-21T08:06:39.231Z,102588.26
2019-03-21T08:09:12.696Z,102590.45
2019-03-21T08:11:46.053Z,102588.41
2019-03-21T08:14:19.432Z,102584.80
2019-03-21T08:16:52.797Z,102581.81
2019-03-21T08:19:26.170Z,102578.03
2019-03-21T08:21:59.608Z,102579.22
2019-03-21T08:24:32.947Z,102571.92
2019-03-21T08:27:06.349Z,102576.34
2019-03-21T08:29:39.745Z,102572.06
2019-03-21T08:32:13.298Z,102573.73
2019-03-21T08:34:46.668Z,102562.88
2019-03-21T08:37:20.078Z,102569.48
2019-03-21T08:39:53.519Z,102567.23
2019-03-21T08:42:26.947Z,102571.44
2019-03-21T08:45:00.435Z,102565.05
2019-03-21T08:47:33.798Z,102572.51
2019-03-21T08:50:11.770Z,102562.05
2019-03-21T08:52:45.188Z,102562.17
2019-03-21T08:55:18.712Z,102557.97
2019-03-21T08:57:52.108Z,102551.83
2019-03-21T09:00:33.773Z,102555.93
2019-03-21T09:03:00.537Z,102557.35
2019-03-21T09:05:33.976Z,102555.14
2019-03-21T09:08:07.339Z,102555.33
2019-03-21T09:10:40.798Z,102550.52
2019-03-21T09:13:14.164Z,102548.73
2019-03-21T09:15:47.635Z,102551.72
2019-03-21T09:18:20.966Z,102548.83
2019-03-21T09:20:54.403Z,102546.89
2019-03-21T09:23:29.502Z,102542.78
2019-03-21T09:26:02.856Z,102547.19
2019-03-21T09:28:36.189Z,102539.25
2019-03-21T09:31:09.564Z,102539.81
2019-03-21T09:33:43.010Z,102535.96
2019-03-21T09:36:16.420Z,102530.07
2019-03-21T09:38:49.855Z,102532.84
2019-03-21T09:41:23.240Z,102530.69
2019-03-21T09:43:56.637Z,102528.78
2019-03-21T09:46:30.107Z,102531.58
2019-03-21T09:49:03.533Z,102536.73
2019-03-21T09:51:36.879Z,102538.73
2019-03-21T09:54:10.370Z,102531.42
2019-03-21T09:56:43.728Z,102533.30
2019-03-21T09:59:17.083Z,102531.47
2019-03-21T10:01:50.489Z,102530.41
2019-03-21T10:04:23.838Z,102517.29
2019-03-21T10:06:57.265Z,102512.02
2019-03-21T10:09:30.720Z,102518.95
2019-03-21T10:12:04.195Z,102507.67
2019-03-21T10:14:37.580Z,102504.58
2019-03-21T10:17:11.141Z,102498.46
2019-03-21T10:19:44.581Z,102494.28
2019-03-21T10:22:17.919Z,102488.98
2019-03-21T10:24:51.312Z,102488.23
2019-03-21T10:27:24.759Z,102490.59
2019-03-21T10:29:58.186Z,102479.30
2019-03-21T10:32:31.686Z,102478.92
2019-03-21T10:35:06.222Z,102484.27
2019-03-21T10:37:39.585Z,102480.00
2019-03-21T10:40:13.124Z,102483.04
2019-03-21T10:42:46.609Z,102475.13
2019-03-21T10:45:20.145Z,102475.58
2019-03-21T10:47:53.568Z,102473.00
2019-03-21T10:50:34.669Z,102470.02
2019-03-21T10:53:08.781Z,102465.62
2019-03-21T10:55:42.286Z,102463.39
2019-03-21T10:58:15.717Z,102463.41
2019-03-21T11:00:49.264Z,102458.16
2019-03-21T11:03:22.626Z,102452.44
2019-03-21T11:05:55.969Z,102451.98
2019-03-21T11:08:29.491Z,102446.64
2019-03-21T11:11:02.914Z,102447.09
2019-03-21T11:13:36.312Z,102450.63
2019-03-21T11:16:09.758Z,102440.95
2019-03-21T11:18:43.259Z,102433.44
2019-03-21T11:21:16.699Z,102425.52
2019-03-21T11:23:50.092Z,102425.88
2019-03-21T11:26:23.598Z,102414.42
2019-03-21T11:28:57.102Z,102421.02
2019-03-21T11:31:30.452Z,102420.12
2019-03-21T11:34:03.866Z,102404.17
2019-03-21T11:36:38.590Z,102411.33
2019-03-21T11:39:12.349Z,102402.88
2019-03-21T11:41:45.805Z,102394.83
2019-03-21T11:44:19.226Z,102395.28
2019-03-21T11:46:52.591Z,102393.95
2019-03-21T11:49:25.955Z,102396.70
2019-03-21T11:51:59.312Z,102385.59
2019-03-21T11:54:32.632Z,102382.42
2019-03-21T11:57:06.135Z,102365.67
2019-03-21T11:59:51.113Z,102359.18
2019-03-21T12:02:26.291Z,102362.70
2019-03-21T12:04:49.823Z,102364.46
2019-03-21T12:07:23.221Z,102359.32
2019-03-21T12:09:56.581Z,102354.86
2019-03-21T12:12:30.054Z,102360.85
2019-03-21T12:15:04.942Z,102342.72
2019-03-21T12:17:38.387Z,102315.64
2019-03-21T12:20:17.750Z,102335.80
2019-03-21T12:22:51.115Z,102338.30
2019-03-21T12:25:24.637Z,102331.87
2019-03-21T12:27:58.120Z,102315.66
2019-03-21T12:30:34.710Z,102324.97
2019-03-21T12:33:08.137Z,102314.88
2019-03-21T12:35:41.615Z,102315.15
2019-03-21T12:38:15.050Z,102299.71
2019-03-21T12:40:48.430Z,102299.71
2019-03-21T12:43:21.797Z,102310.98
2019-03-21T12:45:56.141Z,102311.01
2019-03-21T12:48:29.470Z,102313.02
2019-03-21T12:51:02.900Z,102304.58
2019-03-21T12:53:36.335Z,102307.45
2019-03-21T12:56:09.744Z,102304.67
2019-03-21T12:58:43.125Z,102298.99
2019-03-21T13:01:16.483Z,102290.36
2019-03-21T13:03:49.901Z,102290.63
2019-03-21T13:06:23.339Z,102284.70
2019-03-21T13:08:56.698Z,102284.00
2019-03-21T13:11:30.149Z,102279.73
2019-03-21T13:14:04.905Z,102271.77
2019-03-21T13:16:38.377Z,102269.61
2019-03-21T13:19:11.989Z,102269.61
2019-03-21T13:21:45.357Z,102271.67
2019-03-21T13:24:19.661Z,102261.78
2019-03-21T13:26:53.252Z,102261.78
2019-03-21T13:29:26.677Z,102265.73
2019-03-21T13:32:00.182Z,102260.05
2019-03-21T13:34:33.720Z,102259.44
2019-03-21T13:37:07.120Z,102249.77
2019-03-21T13:39:40.557Z,102243.83
2019-03-21T13:42:14.000Z,102241.14
2019-03-21T13:44:47.339Z,102242.65
2019-03-21T13:47:20.718Z,102238.32
2019-03-21T13:49:54.081Z,102233.83
2019-03-21T13:52:27.518Z,102227.05
2019-03-21T13:55:00.947Z,102224.81
2019-03-21T13:57:34.279Z,102219.64
2019-03-21T14:00:10.939Z,102217.50
2019-03-21T14:02:44.373Z,102215.41
2019-03-21T14:05:17.784Z,102213.86
2019-03-21T14:07:51.230Z,102204.83
2019-03-21T14:10:24.665Z,102209.98
2019-03-21T14:12:58.083Z,102212.38
2019-03-21T14:15:31.539Z,102206.20
2019-03-21T14:18:04.966Z,102202.68
2019-03-21T14:20:38.407Z,102208.44
2019-03-21T14:23:17.128Z,102197.80
2019-03-21T14:25:46.822Z,102197.09
2019-03-21T14:28:20.290Z,102187.16
2019-03-21T14:30:53.716Z,102184.90
2019-03-21T14:33:27.069Z,102187.37
2019-03-21T14:36:00.490Z,102188.53
2019-03-21T14:38:33.862Z,102186.40
2019-03-21T14:41:07.273Z,102181.69
2019-03-21T14:43:40.724Z,102180.68
2019-03-21T14:46:14.065Z,102179.52
2019-03-21T14:48:47.450Z,102179.03
2019-03-21T14:51:20.806Z,102180.48
2019-03-21T14:53:54.162Z,102180.16
2019-03-21T14:56:27.555Z,102180.36
2019-03-21T14:59:00.984Z,102175.73
2019-03-21T15:01:34.439Z,102175.73
2019-03-21T15:04:07.858Z,102175.25
2019-03-21T15:06:41.199Z,102175.50
2019-03-21T15:09:14.637Z,102176.91
2019-03-21T15:11:48.099Z,102171.35
2019-03-21T15:14:21.544Z,102170.27
2019-03-21T15:16:54.990Z,102168.53
2019-03-21T15:19:28.424Z,102164.19
2019-03-21T15:22:01.850Z,102171.15
2019-03-21T15:24:35.262Z,102164.41
2019-03-21T15:27:08.656Z,102161.69
2019-03-21T15:29:42.016Z,102159.13
2019-03-21T15:32:15.509Z,102163.19
2019-03-21T15:34:49.002Z,102167.77
2019-03-21T15:37:22.402Z,102168.78
2019-03-21T15:39:55.796Z,102161.63
2019-03-21T15:42:29.226Z,102160.09
2019-03-21T15:45:20.559Z,102168.13
2019-03-21T15:47:38.043Z,102165.55
2019-03-21T15:50:14.607Z,102158.27
2019-03-21T15:52:48.011Z,102159.36
2019-03-21T15:55:21.392Z,102155.91
2019-03-21T15:57:54.814Z,102157.27
2019-03-21T16:00:36.548Z,102153.65
2019-03-21T16:03:13.650Z,102155.13
2019-03-21T16:05:47.036Z,102151.19
2019-03-21T16:08:20.420Z,102144.48
2019-03-21T16:10:53.828Z,102146.41
2019-03-21T16:13:27.166Z,102144.81
2019-03-21T16:16:00.569Z,102141.83
2019-03-21T16:18:34.064Z,102141.83
2019-03-21T16:21:07.440Z,102140.59
2019-03-21T16:23:40.788Z,102140.59
2019-03-21T16:26:14.215Z,102138.34
2019-03-21T16:29:02.487Z,102138.78
2019-03-21T16:31:42.893Z,102140.36
2019-03-21T16:34:16.317Z,102145.13
2019-03-21T16:36:49.780Z,102130.86
2019-03-21T16:39:23.148Z,102139.62
2019-03-21T16:41:56.563Z,102145.81
2019-03-21T16:44:29.974Z,102143.42
2019-03-21T16:47:03.463Z,102139.66
2019-03-21T16:49:36.802Z,102141.38
2019-03-21T16:52:10.168Z,102146.33
2019-03-21T16:54:43.529Z,102145.73
2019-03-21T16:57:16.895Z,102145.55
2019-03-21T16:59:50.260Z,102142.28
2019-03-21T17:02:23.698Z,102147.65
2019-03-21T17:04:57.113Z,102153.23
2019-03-21T17:07:31.597Z,102145.45
2019-03-21T17:10:07.575Z,102160.12
2019-03-21T17:12:41.057Z,102160.12
2019-03-21T17:15:14.632Z,102151.40
2019-03-21T17:17:48.002Z,102163.85
2019-03-21T17:20:21.418Z,102163.92
2019-03-21T17:22:54.871Z,102166.27
2019-03-21T17:25:31.109Z,102166.88
2019-03-21T17:28:03.458Z,102165.67
2019-03-21T17:30:36.791Z,102171.84
2019-03-21T17:33:10.242Z,102167.97
2019-03-21T17:35:43.570Z,102170.34
2019-03-21T17:38:17.070Z,102171.75
2019-03-21T17:40:50.422Z,102176.77
2019-03-21T17:43:23.867Z,102181.63
2019-03-21T17:45:57.375Z,102179.89
2019-03-21T17:48:30.696Z,102179.91
2019-03-21T17:51:04.180Z,102186.64
2019-03-21T17:53:37.690Z,102185.00
2019-03-21T17:56:11.112Z,102192.07
2019-03-21T17:58:44.467Z,102193.39
2019-03-21T18:01:18.245Z,102192.10
2019-03-21T18:03:51.697Z,102195.20
2019-03-21T18:06:25.211Z,102202.23
2019-03-21T18:08:58.601Z,102194.70
2019-03-21T18:11:31.935Z,102198.59
2019-03-21T18:14:05.392Z,102205.08
2019-03-21T18:16:38.884Z,102204.53
2019-03-21T18:19:12.340Z,102206.65
2019-03-21T18:21:45.777Z,102209.68
2019-03-21T18:24:19.231Z,102206.13
2019-03-21T18:26:52.652Z,102214.97
2019-03-21T18:29:26.166Z,102217.71
2019-03-21T18:31:59.744Z,102208.45
2019-03-21T18:34:33.183Z,102217.63
2019-03-21T18:37:06.614Z,102215.39
2019-03-21T18:39:40.058Z,102213.80
2019-03-21T18:42:13.582Z,102215.20
2019-03-21T18:44:47.108Z,102221.77
2019-03-21T18:47:20.613Z,102221.60
2019-03-21T18:49:54.041Z,102229.83
2019-03-21T18:52:27.476Z,102232.27
2019-03-21T18:55:06.195Z,102227.52
2019-03-21T18:57:36.075Z,102227.02
2019-03-21T19:00:15.928Z,102228.59
2019-03-21T19:02:49.407Z,102234.48
2019-03-21T19:05:22.872Z,102244.89
2019-03-21T19:07:56.215Z,102244.38
2019-03-21T19:10:29.698Z,102242.63
2019-03-21T19:13:03.207Z,102247.89
2019-03-21T19:15:36.690Z,102249.93
2019-03-21T19:18:10.147Z,102251.61
2019-03-21T19:20:43.559Z,102256.27
2019-03-21T19:23:16.946Z,102248.39
2019-03-21T19:25:50.410Z,102248.97
2019-03-21T19:28:23.745Z,102252.17
2019-03-21T19:30:57.192Z,102247.91
2019-03-21T19:33:31.891Z,102255.09
2019-03-21T19:36:05.480Z,102245.85
2019-03-21T19:38:38.969Z,102249.52
2019-03-21T19:41:12.401Z,102250.61
2019-03-21T19:43:45.932Z,102255.84
2019-03-21T19:46:19.385Z,102252.01
2019-03-21T19:48:52.959Z,102254.38
2019-03-21T19:51:26.342Z,102251.23
2019-03-21T19:53:59.778Z,102250.52
2019-03-21T19:56:33.209Z,102256.87
2019-03-21T19:59:06.671Z,102253.25
2019-03-21T20:01:40.183Z,102249.97
2019-03-21T20:04:13.608Z,102251.21
2019-03-21T20:06:47.030Z,102252.85
2019-03-21T20:09:20.648Z,102252.94
2019-03-21T20:11:54.092Z,102253.41
2019-03-21T20:14:27.533Z,102256.73
2019-03-21T20:17:00.967Z,102262.94
2019-03-21T20:19:34.512Z,102255.00
2019-03-21T20:22:07.928Z,102252.48
2019-03-21T20:24:41.378Z,102249.77
2019-03-21T20:27:14.801Z,102251.59
2019-03-21T20:29:48.192Z,102254.92
2019-03-21T20:32:21.563Z,102256.13
2019-03-21T20:34:56.066Z,102257.05
2019-03-21T20:37:29.567Z,102264.49
2019-03-21T20:40:03.841Z,102264.34
2019-03-21T20:42:37.343Z,102265.56
2019-03-21T20:45:13.342Z,102259.86
2019-03-21T20:47:46.830Z,102261.59
2019-03-21T20:50:20.342Z,102259.36
2019-03-21T20:52:53.850Z,102262.41
2019-03-21T20:55:27.386Z,102259.19
2019-03-21T20:58:00.824Z,102257.17
2019-03-21T21:00:34.370Z,102257.61
2019-03-21T21:03:07.850Z,102256.78
2019-03-21T21:05:41.242Z,102256.78
2019-03-21T21:08:14.734Z,102258.45
2019-03-21T21:10:48.158Z,102248.18
2019-03-21T21:13:21.565Z,102251.12
2019-03-21T21:15:54.899Z,102251.64
2019-03-21T21:18:28.394Z,102244.08
2019-03-21T21:21:01.870Z,102241.36
2019-03-21T21:23:35.360Z,102244.25
2019-03-21T21:26:08.803Z,102246.25
2019-03-21T21:28:42.203Z,102244.66
2019-03-21T21:31:15.704Z,102242.16
2019-03-21T21:33:49.128Z,102246.56
2019-03-21T21:36:22.515Z,102252.48
2019-03-21T21:38:55.873Z,102247.03
2019-03-21T21:41:29.325Z,102243.13
2019-03-21T21:44:02.756Z,102246.01
2019-03-21T21:46:36.208Z,102247.97
2019-03-21T21:49:09.687Z,102263.75
2019-03-21T21:51:43.121Z,102255.73
2019-03-21T21:54:16.465Z,102257.91
2019-03-21T21:56:49.910Z,102254.84
2019-03-21T21:59:23.438Z,102253.59
2019-03-21T22:01:56.772Z,102252.16
2019-03-21T22:04:30.218Z,102253.08
2019-03-21T22:07:03.645Z,102251.74
2019-03-21T22:09:37.087Z,102252.56
2019-03-21T22:12:10.520Z,102253.05
2019-03-21T22:14:44.020Z,102248.91
2019-03-21T22:17:17.499Z,102250.72
2019-03-21T22:19:50.850Z,102247.50
2019-03-21T22:22:24.249Z,102254.92
2019-03-21T22:24:57.726Z,102254.86
2019-03-21T22:27:31.083Z,102251.83
2019-03-21T22:30:09.904Z,102249.05
2019-03-21T22:32:43.474Z,102252.86
2019-03-21T22:35:16.835Z,102256.91
2019-03-21T22:37:50.274Z,102245.42
2019-03-21T22:40:23.634Z,102246.25
2019-03-21T22:42:57.075Z,102248.47
2019-03-21T22:45:30.490Z,102246.28
2019-03-21T22:48:03.974Z,102243.92
2019-03-21T22:50:37.358Z,102246.73
2019-03-21T22:53:10.776Z,102245.53
2019-03-21T22:55:44.271Z,102241.55
2019-03-21T22:58:17.701Z,102243.78
2019-03-21T23:00:51.965Z,102232.94
2019-03-21T23:03:25.312Z,102239.80
2019-03-21T23:05:58.808Z,102233.98
2019-03-21T23:08:32.141Z,102235.00
2019-03-21T23:11:05.580Z,102226.59
2019-03-21T23:13:38.931Z,102220.80
2019-03-21T23:16:12.316Z,102225.09
2019-03-21T23:18:45.669Z,102217.56
2019-03-21T23:21:19.035Z,102219.69
2019-03-21T23:23:52.411Z,102220.74
2019-03-21T23:26:25.836Z,102222.53
2019-03-21T23:28:59.200Z,102218.03
2019-03-21T23:31:32.644Z,102212.94
2019-03-21T23:34:06.081Z,102214.80
2019-03-21T23:36:39.512Z,102210.00
2019-03-21T23:39:12.865Z,102210.56
2019-03-21T23:41:46.368Z,102209.81
2019-03-21T23:44:19.729Z,102213.88
2019-03-21T23:46:53.082Z,102208.33
2019-03-21T23:49:26.497Z,102209.03
2019-03-21T23:51:59.938Z,102210.18
2019-03-21T23:54:33.360Z,102209.05
2019-03-21T23:57:06.868Z,102208.55
2019-03-21T23:59:40.221Z,102210.42
